MOL Modern — V7VS6 — position and weather

sailwx.info

Track history (hours):
 
Tides and Currents Weather Stations Pressure Air Temp Water Temp Dewpoint Dewpoint Depression Visibility Wind Speed Wind Dir Waves Ship Positions

MOL Modern

Last reported at 2016-Jul-24 04:33 UTC. Time now 2016-Jul-27 23:06 UTC.
Position N 36°54' W 075°55'.

Length 302 m; draft 9 m.

Type: Ship (hazmat cat A). MMSI: 538004203.

Date/timePositionNaut miles runAvg speedWind from/ knotsBaromVisibWave heightAir tempDewpointWater temp
2016-Jul-24 04:33N 36°54' W 075°55'1211.4
2016-Jul-24 03:33N 36°59' W 076°08'1010.0
2016-Jul-24 02:33N 36°56' W 076°20'1 0.7
2016-Jul-24 01:27N 36°56' W 076°20'0 0.0
2016-Jul-23 23:33N 36°56' W 076°20'0 0.0
2016-Jul-23 22:33N 36°56' W 076°20'0 0.0
2016-Jul-23 21:33N 36°56' W 076°20'0 0.0
2016-Jul-23 20:33N 36°56' W 076°20'0 0.0
2016-Jul-23 19:33N 36°56' W 076°20'0 0.0
2016-Jul-23 18:18N 36°56' W 076°20'0 0.0
2016-Jul-23 16:15N 36°56' W 076°20'0 0.0
2016-Jul-23 15:33N 36°56' W 076°20'0 0.0
2016-Jul-23 14:15N 36°56' W 076°20'0 0.0
2016-Jul-23 13:33N 36°56' W 076°20'0 0.0
2016-Jul-23 10:09N 36°56' W 076°20'1 0.9
2016-Jul-23 09:33N 36°56' W 076°20'11 9.2
2016-Jul-23 08:24N 36°59' W 076°07'1112.2
2016-Jul-23 07:29N 36°55' W 075°54'13410.3
2016-Jul-22 18:33N 34°42' W 075°31'1514.7
2016-Jul-22 17:33N 34°33' W 075°45'1514.5
2016-Jul-22 16:34N 34°24' W 075°59'3014.6
2016-Jul-22 14:32N 34°05' W 076°26'  
2016-Jul-20 10:32N 32°04' W 079°49'30 0.7
2016-Jul-18 15:33N 31°56' W 080°24'1312.9
2016-Jul-18 14:33N 31°56' W 080°39'1211.9
2016-Jul-18 13:33N 32°02' W 080°51'10 9.5
2016-Jul-18 12:33N 32°05' W 081°01'5 5.1
2016-Jul-18 11:33N 32°06' W 081°07'1 1.3
2016-Jul-18 10:27N 32°08' W 081°08'0 0.0
2016-Jul-18 09:33N 32°08' W 081°08'0 0.0
2016-Jul-18 08:33N 32°08' W 081°08'0 0.0
2016-Jul-18 07:33N 32°08' W 081°08'0 0.0
2016-Jul-18 06:15N 32°08' W 081°08'0 0.0
2016-Jul-18 05:33N 32°08' W 081°08'0 0.0
2016-Jul-18 04:33N 32°08' W 081°08'0 0.0
2016-Jul-18 03:33N 32°08' W 081°08'0 0.0
2016-Jul-18 02:33N 32°08' W 081°08'0 0.0
2016-Jul-18 01:33N 32°08' W 081°08'0 0.0
2016-Jul-18 00:09N 32°08' W 081°08'0 0.0
2016-Jul-17 23:33N 32°08' W 081°08'0 0.0
2016-Jul-17 22:33N 32°08' W 081°08'0 0.0
2016-Jul-17 21:33N 32°08' W 081°08'2 1.9
2016-Jul-17 20:33N 32°06' W 081°07'5 5.3
2016-Jul-17 19:33N 32°06' W 081°01'1111.0
2016-Jul-17 18:33N 32°02' W 080°49'9 9.5
2016-Jul-17 17:33N 31°57' W 080°39'9 9.0
2016-Jul-17 16:33N 31°56' W 080°28'10 9.4
2016-Jul-17 15:27N 31°55' W 080°17'29419.7
2016-Jul-17 00:34N 27°02' W 079°52'2323.1
2016-Jul-16 23:33N 26°39' W 079°51'2323.0
2016-Jul-16 22:33N 26°16' W 079°50'2222.0
2016-Jul-16 21:33N 25°56' W 079°59'1313.0
2016-Jul-16 20:33N 25°46' W 080°08'1 0.7
2016-Jul-16 19:15N 25°46' W 080°09'0 0.0
2016-Jul-16 18:27N 25°46' W 080°09'0 0.0
2016-Jul-16 06:27N 25°46' W 080°09'22 7.4
2016-Jul-16 03:29N 25°49' W 079°45'5 5.0
2016-Jul-16 02:31N 25°44' W 079°45'  
Track history (hours):
 
Tides and Currents Weather Stations Pressure Air Temp Water Temp Dewpoint Dewpoint Depression Visibility Wind Speed Wind Dir Waves Ship Positions

MOL Modern

Last reported at 2016-Jul-24 04:33 UTC. Time now 2016-Jul-27 23:06 UTC.
Position N 36°54' W 075°55'.

Length 302 m; draft 9 m.

Type: Ship (hazmat cat A). MMSI: 538004203.

Date/timePositionNaut miles runAvg speedWind from/ knotsBaromVisibWave heightAir tempDewpointWater temp
2016-Jul-24 04:33N 36°54' W 075°55'1211.4
2016-Jul-24 03:33N 36°59' W 076°08'1010.0
2016-Jul-24 02:33N 36°56' W 076°20'1 0.7
2016-Jul-24 01:27N 36°56' W 076°20'0 0.0
2016-Jul-23 23:33N 36°56' W 076°20'0 0.0
2016-Jul-23 22:33N 36°56' W 076°20'0 0.0
2016-Jul-23 21:33N 36°56' W 076°20'0 0.0
2016-Jul-23 20:33N 36°56' W 076°20'0 0.0
2016-Jul-23 19:33N 36°56' W 076°20'0 0.0
2016-Jul-23 18:18N 36°56' W 076°20'0 0.0
2016-Jul-23 16:15N 36°56' W 076°20'0 0.0
2016-Jul-23 15:33N 36°56' W 076°20'0 0.0
2016-Jul-23 14:15N 36°56' W 076°20'0 0.0
2016-Jul-23 13:33N 36°56' W 076°20'0 0.0
2016-Jul-23 10:09N 36°56' W 076°20'1 0.9
2016-Jul-23 09:33N 36°56' W 076°20'11 9.2
2016-Jul-23 08:24N 36°59' W 076°07'1112.2
2016-Jul-23 07:29N 36°55' W 075°54'13410.3
2016-Jul-22 18:33N 34°42' W 075°31'1514.7
2016-Jul-22 17:33N 34°33' W 075°45'1514.5
2016-Jul-22 16:34N 34°24' W 075°59'3014.6
2016-Jul-22 14:32N 34°05' W 076°26'  
2016-Jul-20 10:32N 32°04' W 079°49'30 0.7
2016-Jul-18 15:33N 31°56' W 080°24'1312.9
2016-Jul-18 14:33N 31°56' W 080°39'1211.9
2016-Jul-18 13:33N 32°02' W 080°51'10 9.5
2016-Jul-18 12:33N 32°05' W 081°01'5 5.1
2016-Jul-18 11:33N 32°06' W 081°07'1 1.3
2016-Jul-18 10:27N 32°08' W 081°08'0 0.0
2016-Jul-18 09:33N 32°08' W 081°08'0 0.0
2016-Jul-18 08:33N 32°08' W 081°08'0 0.0
2016-Jul-18 07:33N 32°08' W 081°08'0 0.0
2016-Jul-18 06:15N 32°08' W 081°08'0 0.0
2016-Jul-18 05:33N 32°08' W 081°08'0 0.0
2016-Jul-18 04:33N 32°08' W 081°08'0 0.0
2016-Jul-18 03:33N 32°08' W 081°08'0 0.0
2016-Jul-18 02:33N 32°08' W 081°08'0 0.0
2016-Jul-18 01:33N 32°08' W 081°08'0 0.0
2016-Jul-18 00:09N 32°08' W 081°08'0 0.0
2016-Jul-17 23:33N 32°08' W 081°08'0 0.0
2016-Jul-17 22:33N 32°08' W 081°08'0 0.0
2016-Jul-17 21:33N 32°08' W 081°08'2 1.9
2016-Jul-17 20:33N 32°06' W 081°07'5 5.3
2016-Jul-17 19:33N 32°06' W 081°01'1111.0
2016-Jul-17 18:33N 32°02' W 080°49'9 9.5
2016-Jul-17 17:33N 31°57' W 080°39'9 9.0
2016-Jul-17 16:33N 31°56' W 080°28'10 9.4
2016-Jul-17 15:27N 31°55' W 080°17'29419.7
2016-Jul-17 00:34N 27°02' W 079°52'2323.1
2016-Jul-16 23:33N 26°39' W 079°51'2323.0
2016-Jul-16 22:33N 26°16' W 079°50'2222.0
2016-Jul-16 21:33N 25°56' W 079°59'1313.0
2016-Jul-16 20:33N 25°46' W 080°08'1 0.7
2016-Jul-16 19:15N 25°46' W 080°09'0 0.0
2016-Jul-16 18:27N 25°46' W 080°09'0 0.0
2016-Jul-16 06:27N 25°46' W 080°09'22 7.4
2016-Jul-16 03:29N 25°49' W 079°45'5 5.0
2016-Jul-16 02:31N 25°44' W 079°45'  

Dump ship's entire track history